createdAt,value
2022-08-18T00:01:14.769Z,19.12
2022-08-18T00:03:55.485Z,19.11
2022-08-18T00:06:28.982Z,19.05
2022-08-18T00:09:02.021Z,18.93
2022-08-18T00:11:40.738Z,18.97
2022-08-18T00:14:21.384Z,18.91
2022-08-18T00:16:50.334Z,18.84
2022-08-18T00:19:17.854Z,18.75
2022-08-18T00:21:45.205Z,18.78
2022-08-18T00:24:12.421Z,18.73
2022-08-18T00:26:39.874Z,18.71
2022-08-18T00:29:08.557Z,18.67
2022-08-18T00:31:36.041Z,18.66
2022-08-18T00:34:03.574Z,18.63
2022-08-18T00:36:32.639Z,18.60
2022-08-18T00:38:59.780Z,18.58
2022-08-18T00:41:27.829Z,18.58
2022-08-18T00:43:58.507Z,18.56
2022-08-18T00:46:29.170Z,18.54
2022-08-18T00:48:57.516Z,18.52
2022-08-18T00:51:26.608Z,18.53
2022-08-18T00:54:07.347Z,18.52
2022-08-18T00:56:42.830Z,18.49
2022-08-18T00:59:16.100Z,18.46
2022-08-18T01:01:45.109Z,18.41
2022-08-18T01:04:17.974Z,18.32
2022-08-18T01:06:52.110Z,18.26
2022-08-18T01:09:19.365Z,18.22
2022-08-18T01:11:46.749Z,18.16
2022-08-18T01:14:18.369Z,18.13
2022-08-18T01:17:08.652Z,18.11
2022-08-18T01:19:55.191Z,18.10
2022-08-18T01:22:30.513Z,18.03
2022-08-18T01:25:18.991Z,18.08
2022-08-18T01:27:46.252Z,18.04
2022-08-18T01:30:18.221Z,17.99
2022-08-18T01:32:48.020Z,18.00
2022-08-18T01:35:17.841Z,17.95
2022-08-18T01:37:45.463Z,17.91
2022-08-18T01:41:23.344Z,17.89
2022-08-18T01:43:05.820Z,17.84
2022-08-18T01:45:33.566Z,17.82
2022-08-18T01:48:01.292Z,17.85
2022-08-18T01:50:30.457Z,17.79
2022-08-18T01:52:57.610Z,17.73
2022-08-18T01:55:26.940Z,17.76
2022-08-18T01:57:55.761Z,17.79
2022-08-18T02:00:24.974Z,17.69
2022-08-18T02:02:58.116Z,17.66
2022-08-18T02:05:34.751Z,17.66
2022-08-18T02:08:03.150Z,17.59
2022-08-18T02:10:31.474Z,17.56
2022-08-18T02:12:58.945Z,17.54
2022-08-18T02:15:26.421Z,17.54
2022-08-18T02:17:54.008Z,17.54
2022-08-18T02:20:21.323Z,17.48
2022-08-18T02:22:49.725Z,17.51
2022-08-18T02:25:18.285Z,17.50
2022-08-18T02:27:46.237Z,17.50
2022-08-18T02:30:16.163Z,17.49
2022-08-18T02:32:43.986Z,17.45
2022-08-18T02:35:12.242Z,17.45
2022-08-18T02:37:45.660Z,17.41
2022-08-18T02:40:15.176Z,17.34
2022-08-18T02:42:44.439Z,17.34
2022-08-18T02:45:13.475Z,17.41
2022-08-18T02:47:42.867Z,17.28
2022-08-18T02:50:16.798Z,17.21
2022-08-18T02:52:44.459Z,17.10
2022-08-18T02:55:12.339Z,17.15
2022-08-18T02:57:44.769Z,17.04
2022-08-18T03:00:18.789Z,16.98
2022-08-18T03:02:48.327Z,17.00
2022-08-18T03:05:16.485Z,17.01
2022-08-18T03:07:44.411Z,16.97
2022-08-18T03:10:33.007Z,16.93
2022-08-18T03:13:00.069Z,16.89
2022-08-18T03:15:27.511Z,16.88
2022-08-18T03:17:55.471Z,16.88
2022-08-18T03:20:30.796Z,16.87
2022-08-18T03:22:59.005Z,16.96
2022-08-18T03:25:26.629Z,16.95
2022-08-18T03:27:53.861Z,16.92
2022-08-18T03:30:21.287Z,16.91
2022-08-18T03:32:49.484Z,16.89
2022-08-18T03:35:16.891Z,16.87
2022-08-18T03:37:44.903Z,16.90
2022-08-18T03:40:12.937Z,16.91
2022-08-18T03:42:40.417Z,16.92
2022-08-18T03:45:13.147Z,16.96
2022-08-18T03:47:46.118Z,16.94
2022-08-18T03:50:14.179Z,16.91
2022-08-18T03:52:41.989Z,16.90
2022-08-18T03:55:09.716Z,16.96
2022-08-18T03:57:39.092Z,17.07
2022-08-18T04:00:09.083Z,17.08
2022-08-18T04:02:36.783Z,17.11
2022-08-18T04:05:05.299Z,17.09
2022-08-18T04:07:32.905Z,17.09
2022-08-18T04:10:00.630Z,17.17
2022-08-18T04:12:28.101Z,17.23
2022-08-18T04:14:55.225Z,17.36
2022-08-18T04:17:25.759Z,17.43
2022-08-18T04:19:54.627Z,17.58
2022-08-18T04:22:23.083Z,17.67
2022-08-18T04:24:51.135Z,17.78
2022-08-18T04:27:19.886Z,17.94
2022-08-18T04:29:47.970Z,17.97
2022-08-18T04:32:16.127Z,18.11
2022-08-18T04:34:43.513Z,18.18
2022-08-18T04:37:11.232Z,18.39
2022-08-18T04:39:39.033Z,18.44
2022-08-18T04:42:06.438Z,18.60
2022-08-18T04:44:35.360Z,18.66
2022-08-18T04:47:02.823Z,18.88
2022-08-18T04:49:31.948Z,19.00
2022-08-18T04:52:37.170Z,19.17
2022-08-18T04:55:06.601Z,19.35
2022-08-18T04:57:35.199Z,19.51
2022-08-18T05:00:05.401Z,19.68
2022-08-18T05:02:33.781Z,19.79
2022-08-18T05:05:03.482Z,19.98
2022-08-18T05:07:31.033Z,20.30
2022-08-18T05:09:58.672Z,20.66
2022-08-18T05:12:26.807Z,20.84
2022-08-18T05:14:57.253Z,21.05
2022-08-18T05:17:30.393Z,21.26
2022-08-18T05:20:01.431Z,21.51
2022-08-18T05:22:31.699Z,21.81
2022-08-18T05:25:00.612Z,22.04
2022-08-18T05:27:33.013Z,22.41
2022-08-18T05:30:00.689Z,22.89
2022-08-18T05:32:47.626Z,23.22
2022-08-18T05:35:24.044Z,23.57
2022-08-18T05:38:09.910Z,23.66
2022-08-18T05:40:37.721Z,23.80
2022-08-18T05:43:05.830Z,24.01
2022-08-18T05:45:34.761Z,24.36
2022-08-18T05:48:02.642Z,24.83
2022-08-18T05:50:33.105Z,25.24
2022-08-18T05:53:40.580Z,25.63
2022-08-18T05:56:29.017Z,25.79
2022-08-18T05:58:57.747Z,26.11
2022-08-18T06:01:33.211Z,26.33
2022-08-18T06:04:09.655Z,26.66
2022-08-18T06:06:37.431Z,26.90
2022-08-18T06:09:32.854Z,27.20
2022-08-18T06:12:22.967Z,27.19
2022-08-18T06:14:50.327Z,27.22
2022-08-18T06:17:55.165Z,27.04
2022-08-18T06:20:30.255Z,26.78
2022-08-18T06:23:16.508Z,26.56
2022-08-18T06:25:50.713Z,26.89
2022-08-18T06:28:18.651Z,26.79
2022-08-18T06:31:00.807Z,27.01
2022-08-18T06:33:29.768Z,27.54
2022-08-18T06:36:02.710Z,27.83
2022-08-18T06:38:45.619Z,28.22
2022-08-18T06:41:41.706Z,28.33
2022-08-18T06:44:25.021Z,28.45
2022-08-18T06:47:15.630Z,28.26
2022-08-18T06:49:55.017Z,28.29
2022-08-18T06:52:25.944Z,28.56
2022-08-18T06:54:56.120Z,28.72
2022-08-18T06:57:29.159Z,28.99
2022-08-18T07:00:00.450Z,28.82
2022-08-18T07:02:56.764Z,29.04
2022-08-18T07:05:28.315Z,28.95
2022-08-18T07:08:15.969Z,28.67
2022-08-18T07:10:51.311Z,28.51
2022-08-18T07:13:19.878Z,27.69
2022-08-18T07:15:48.596Z,27.96
2022-08-18T07:18:24.510Z,28.31
2022-08-18T07:20:58.536Z,28.48
2022-08-18T07:23:30.511Z,28.71
2022-08-18T07:26:08.942Z,28.66
2022-08-18T07:28:45.884Z,28.99
2022-08-18T07:31:37.074Z,28.91
2022-08-18T07:34:37.254Z,28.88
2022-08-18T07:37:08.627Z,28.88
2022-08-18T07:40:00.790Z,28.66
2022-08-18T07:42:53.600Z,28.56
2022-08-18T07:45:32.093Z,28.26
2022-08-18T07:48:38.563Z,28.23
2022-08-18T07:51:17.300Z,28.15
2022-08-18T07:53:55.690Z,28.49
2022-08-18T07:56:44.821Z,28.56
2022-08-18T07:59:18.537Z,28.96
2022-08-18T08:01:56.313Z,29.18
2022-08-18T08:04:37.437Z,28.92
2022-08-18T08:07:30.518Z,28.56
2022-08-18T08:10:28.625Z,28.24
2022-08-18T08:13:09.270Z,28.12
2022-08-18T08:15:57.214Z,28.28
2022-08-18T08:18:35.680Z,28.60
2022-08-18T08:21:10.882Z,28.87
2022-08-18T08:23:53.531Z,28.62
2022-08-18T08:26:51.183Z,28.80
2022-08-18T08:29:52.044Z,28.78
2022-08-18T08:32:26.939Z,29.00
2022-08-18T08:35:49.411Z,29.00
2022-08-18T08:38:38.729Z,29.10
2022-08-18T08:41:11.439Z,29.31
2022-08-18T08:43:50.132Z,29.17
2022-08-18T08:46:25.165Z,29.52
2022-08-18T08:49:22.160Z,29.65
2022-08-18T08:51:57.624Z,29.63
2022-08-18T08:54:31.301Z,29.51
2022-08-18T08:57:00.884Z,29.22
2022-08-18T08:59:28.344Z,28.96
2022-08-18T09:02:15.928Z,29.00
2022-08-18T09:05:08.656Z,29.20
2022-08-18T09:08:03.164Z,29.31
2022-08-18T09:11:01.691Z,29.17
2022-08-18T09:14:06.671Z,29.36
2022-08-18T09:16:42.880Z,29.28
2022-08-18T09:19:36.742Z,29.26
2022-08-18T09:22:34.293Z,29.08
2022-08-18T09:25:01.906Z,29.10
2022-08-18T09:28:00.084Z,29.14
2022-08-18T09:31:00.013Z,29.28
2022-08-18T09:33:51.890Z,29.37
2022-08-18T09:36:48.736Z,29.65
2022-08-18T09:42:50.370Z,29.72
2022-08-18T09:45:33.368Z,29.80
2022-08-18T09:48:08.729Z,29.91
2022-08-18T09:50:57.993Z,29.79
2022-08-18T09:53:36.785Z,29.64
2022-08-18T09:56:06.506Z,29.57
2022-08-18T10:01:52.115Z,29.29
2022-08-18T10:04:51.857Z,29.50
2022-08-18T10:07:38.773Z,29.68
2022-08-18T10:11:00.854Z,29.79
2022-08-18T10:13:39.211Z,29.48
2022-08-18T10:16:25.969Z,29.70
2022-08-18T10:19:04.471Z,29.71
2022-08-18T10:21:56.175Z,29.82
2022-08-18T10:27:57.284Z,29.78
2022-08-18T10:30:56.717Z,29.73
2022-08-18T10:33:53.320Z,29.72
2022-08-18T10:36:45.459Z,29.96
2022-08-18T10:39:41.680Z,30.19
2022-08-18T10:42:31.454Z,30.19
2022-08-18T10:45:22.016Z,30.36
2022-08-18T10:48:17.299Z,30.39
2022-08-18T10:51:11.624Z,30.35
2022-08-18T10:53:51.853Z,30.37
2022-08-18T10:56:48.358Z,30.13
2022-08-18T10:59:50.582Z,29.94
2022-08-18T11:02:39.983Z,30.08
2022-08-18T11:05:11.314Z,30.20
2022-08-18T11:07:43.051Z,30.10
2022-08-18T11:10:32.170Z,30.05
2022-08-18T11:13:08.756Z,30.22
2022-08-18T11:15:48.072Z,30.38
2022-08-18T11:18:30.196Z,30.46
2022-08-18T11:21:23.734Z,30.34
2022-08-18T11:24:10.172Z,30.15
2022-08-18T11:26:53.111Z,30.04
2022-08-18T11:29:33.029Z,30.10
2022-08-18T11:32:22.343Z,30.16
2022-08-18T11:35:06.136Z,30.02
2022-08-18T11:46:31.580Z,29.94
2022-08-18T11:49:02.075Z,30.06
2022-08-18T11:51:33.858Z,29.98
2022-08-18T11:54:05.135Z,30.08
2022-08-18T11:56:37.645Z,30.23
2022-08-18T11:59:25.695Z,30.04
2022-08-18T12:02:17.489Z,29.92
2022-08-18T12:04:50.904Z,29.83
2022-08-18T12:07:30.923Z,29.83
2022-08-18T12:13:22.776Z,29.77
2022-08-18T12:16:09.391Z,29.91
2022-08-18T12:18:37.759Z,29.99
2022-08-18T12:21:06.280Z,30.16
2022-08-18T12:26:26.963Z,30.42
2022-08-18T12:29:08.961Z,30.46
2022-08-18T12:31:42.660Z,30.43
2022-08-18T12:34:24.913Z,30.55
2022-08-18T12:37:01.548Z,30.55
2022-08-18T12:39:30.413Z,30.65
2022-08-18T12:41:59.774Z,30.62
2022-08-18T12:44:27.715Z,30.67
2022-08-18T12:46:56.211Z,30.75
2022-08-18T12:49:25.210Z,30.71
2022-08-18T12:51:55.894Z,30.76
2022-08-18T12:54:25.276Z,30.75
2022-08-18T12:56:54.943Z,30.73
2022-08-18T12:59:24.787Z,30.81
2022-08-18T13:01:58.525Z,30.96
2022-08-18T13:04:27.700Z,30.85
2022-08-18T13:06:59.889Z,30.80
2022-08-18T13:09:48.536Z,30.62
2022-08-18T13:12:20.875Z,30.70
2022-08-18T13:14:50.776Z,30.69
2022-08-18T13:17:32.136Z,30.72
2022-08-18T13:20:10.690Z,30.59
2022-08-18T13:22:41.618Z,30.70
2022-08-18T13:25:32.199Z,30.81
2022-08-18T13:28:00.856Z,30.79
2022-08-18T13:30:32.125Z,30.66
2022-08-18T13:33:05.446Z,30.62
2022-08-18T13:35:54.545Z,30.51
2022-08-18T13:38:27.391Z,30.35
2022-08-18T13:40:59.349Z,30.38
2022-08-18T13:43:32.435Z,30.47
2022-08-18T13:46:03.934Z,30.55
2022-08-18T13:48:32.258Z,30.65
2022-08-18T13:51:01.735Z,30.78
2022-08-18T13:53:31.627Z,30.65
2022-08-18T13:55:59.561Z,30.54
2022-08-18T13:58:28.190Z,30.59
2022-08-18T14:01:16.045Z,30.60
2022-08-18T14:03:47.394Z,30.65
2022-08-18T14:06:22.006Z,30.75
2022-08-18T14:08:52.373Z,30.70
2022-08-18T14:11:23.714Z,30.50
2022-08-18T14:13:54.535Z,30.32
2022-08-18T14:16:26.636Z,30.13
2022-08-18T14:19:28.433Z,30.21
2022-08-18T14:22:14.771Z,30.15
2022-08-18T14:25:01.683Z,29.92
2022-08-18T14:27:35.210Z,29.87
2022-08-18T14:30:07.563Z,29.91
2022-08-18T14:32:36.669Z,29.97
2022-08-18T14:35:33.386Z,30.06
2022-08-18T14:38:05.688Z,30.11
2022-08-18T14:40:33.721Z,29.92
2022-08-18T14:43:06.476Z,29.87
2022-08-18T14:45:35.852Z,29.87
2022-08-18T14:48:07.710Z,29.90
2022-08-18T14:50:44.688Z,29.90
2022-08-18T14:53:20.263Z,29.98
2022-08-18T14:55:52.333Z,30.04
2022-08-18T14:58:21.002Z,30.05
2022-08-18T15:00:53.774Z,30.09
2022-08-18T15:03:31.129Z,29.96
2022-08-18T15:06:04.723Z,29.83
2022-08-18T15:08:35.734Z,29.70
2022-08-18T15:11:11.544Z,29.63
2022-08-18T15:13:46.668Z,29.49
2022-08-18T15:16:16.329Z,29.46
2022-08-18T15:18:45.089Z,29.49
2022-08-18T15:21:35.639Z,29.56
2022-08-18T15:24:26.564Z,29.50
2022-08-18T15:26:58.159Z,29.38
2022-08-18T15:29:34.133Z,29.45
2022-08-18T15:32:06.182Z,29.51
2022-08-18T15:34:47.101Z,29.50
2022-08-18T15:37:22.323Z,29.56
2022-08-18T15:40:03.144Z,29.61
2022-08-18T15:42:31.294Z,29.71
2022-08-18T15:45:11.743Z,29.74
2022-08-18T15:47:41.693Z,29.67
2022-08-18T15:50:25.172Z,29.65
2022-08-18T15:52:58.067Z,29.63
2022-08-18T15:55:28.739Z,29.57
2022-08-18T15:57:58.353Z,29.47
2022-08-18T16:00:27.925Z,29.43
2022-08-18T16:03:00.061Z,29.38
2022-08-18T16:05:31.175Z,29.47
2022-08-18T16:08:01.346Z,29.62
2022-08-18T16:10:33.315Z,29.52
2022-08-18T16:13:04.835Z,29.43
2022-08-18T16:15:39.120Z,29.31
2022-08-18T16:18:08.876Z,29.34
2022-08-18T16:20:36.956Z,29.35
2022-08-18T16:23:05.612Z,29.31
2022-08-18T16:25:33.903Z,29.41
2022-08-18T16:28:01.884Z,29.32
2022-08-18T16:30:29.473Z,29.30
2022-08-18T16:33:02.978Z,29.34
2022-08-18T16:35:31.449Z,29.39
2022-08-18T16:38:04.735Z,29.41
2022-08-18T16:40:32.159Z,29.40
2022-08-18T16:43:00.769Z,29.41
2022-08-18T16:45:29.055Z,29.35
2022-08-18T16:47:56.444Z,29.32
2022-08-18T16:50:25.479Z,29.35
2022-08-18T16:52:53.124Z,29.41
2022-08-18T16:55:20.790Z,29.42
2022-08-18T16:58:07.263Z,29.22
2022-08-18T17:00:55.244Z,29.22
2022-08-18T17:03:42.608Z,29.25
2022-08-18T17:06:13.998Z,29.23
2022-08-18T17:08:43.233Z,29.20
2022-08-18T17:11:13.970Z,29.15
2022-08-18T17:13:42.231Z,29.08
2022-08-18T17:16:11.341Z,29.01
2022-08-18T17:18:39.270Z,28.94
2022-08-18T17:21:09.663Z,28.84
2022-08-18T17:23:39.151Z,28.77
2022-08-18T17:26:16.707Z,28.63
2022-08-18T17:28:55.568Z,28.54
2022-08-18T17:31:24.789Z,28.39
2022-08-18T17:33:57.443Z,28.28
2022-08-18T17:36:52.843Z,28.10
2022-08-18T17:39:26.751Z,27.98
2022-08-18T17:42:12.660Z,27.86
2022-08-18T17:44:46.318Z,27.68
2022-08-18T17:47:27.404Z,27.62
2022-08-18T17:50:26.711Z,27.46
2022-08-18T17:53:01.584Z,27.17
2022-08-18T17:55:43.205Z,26.90
2022-08-18T17:58:29.456Z,26.70
2022-08-18T18:00:57.570Z,26.49
2022-08-18T18:03:25.011Z,26.35
2022-08-18T18:05:59.822Z,26.18
2022-08-18T18:08:54.053Z,25.95
2022-08-18T18:11:31.211Z,25.78
2022-08-18T18:14:00.771Z,25.55
2022-08-18T18:16:35.278Z,25.45
2022-08-18T18:19:06.381Z,25.15
2022-08-18T18:22:00.937Z,24.99
2022-08-18T18:24:30.622Z,24.78
2022-08-18T18:26:58.510Z,24.67
2022-08-18T18:29:33.251Z,24.59
2022-08-18T18:32:05.199Z,24.43
2022-08-18T18:34:39.745Z,24.29
2022-08-18T18:37:27.479Z,24.16
2022-08-18T18:39:57.873Z,24.03
2022-08-18T18:42:28.972Z,24.00
2022-08-18T18:44:59.358Z,23.98
2022-08-18T18:47:56.184Z,23.95
2022-08-18T18:50:38.893Z,23.88
2022-08-18T18:54:00.903Z,23.80
2022-08-18T18:56:28.268Z,23.76
2022-08-18T18:59:12.705Z,23.68
2022-08-18T19:02:22.127Z,23.65
2022-08-18T19:05:12.821Z,23.64
2022-08-18T19:08:02.111Z,23.56
2022-08-18T19:10:35.683Z,23.50
2022-08-18T19:13:32.441Z,23.41
2022-08-18T19:16:24.614Z,23.32
2022-08-18T19:19:38.245Z,23.24
2022-08-18T19:22:03.504Z,23.21
2022-08-18T19:24:42.457Z,23.16
2022-08-18T19:27:23.353Z,23.12
2022-08-18T19:29:55.115Z,23.03
2022-08-18T19:32:29.190Z,22.89
2022-08-18T19:34:57.408Z,22.79
2022-08-18T19:37:40.855Z,22.68
2022-08-18T19:40:20.051Z,22.64
2022-08-18T19:43:26.730Z,22.58
2022-08-18T19:46:11.096Z,22.54
2022-08-18T19:48:43.648Z,22.47
2022-08-18T19:51:14.021Z,22.41
2022-08-18T19:54:00.003Z,22.31
2022-08-18T19:56:27.756Z,22.22
2022-08-18T19:59:21.441Z,22.17
2022-08-18T20:02:27.301Z,22.15
2022-08-18T20:05:26.722Z,22.08
2022-08-18T20:08:18.972Z,22.06
2022-08-18T20:11:15.334Z,22.15
2022-08-18T20:13:44.910Z,22.20
2022-08-18T20:16:23.775Z,22.18
2022-08-18T20:18:57.618Z,22.17
2022-08-18T20:21:36.812Z,22.14
2022-08-18T20:24:38.421Z,22.14
2022-08-18T20:27:38.580Z,22.18
2022-08-18T20:30:33.107Z,22.28
2022-08-18T20:33:09.399Z,22.33
2022-08-18T20:35:47.129Z,22.36
2022-08-18T20:38:37.477Z,22.41
2022-08-18T20:41:23.774Z,22.42
2022-08-18T20:44:28.621Z,22.44
2022-08-18T20:47:09.327Z,22.42
2022-08-18T20:50:02.649Z,22.25
2022-08-18T20:52:43.401Z,22.08
2022-08-18T20:55:34.867Z,22.07
2022-08-18T20:58:08.362Z,22.10
2022-08-18T21:00:40.821Z,22.08
2022-08-18T21:03:13.133Z,21.99
2022-08-18T21:05:43.696Z,21.94
2022-08-18T21:08:17.136Z,21.84
2022-08-18T21:10:51.767Z,21.79
2022-08-18T21:13:41.522Z,21.74
2022-08-18T21:16:11.611Z,21.68
2022-08-18T21:18:41.021Z,21.64
2022-08-18T21:21:19.202Z,21.56
2022-08-18T21:23:58.143Z,21.50
2022-08-18T21:26:27.960Z,21.48
2022-08-18T21:28:58.759Z,21.51
2022-08-18T21:31:43.040Z,21.62
2022-08-18T21:34:31.721Z,21.43
2022-08-18T21:37:01.934Z,21.74
2022-08-18T21:39:29.682Z,21.73
2022-08-18T21:41:58.589Z,21.65
2022-08-18T21:44:42.045Z,21.65
2022-08-18T21:47:15.759Z,21.64
2022-08-18T21:50:01.384Z,21.66
2022-08-18T21:52:30.514Z,21.62
2022-08-18T21:55:03.711Z,21.57
2022-08-18T21:57:51.973Z,21.58
2022-08-18T22:01:07.050Z,21.53
2022-08-18T22:03:36.139Z,21.53
2022-08-18T22:06:36.073Z,21.50
2022-08-18T22:09:28.137Z,21.46
2022-08-18T22:12:37.301Z,21.51
2022-08-18T22:15:07.678Z,21.55
2022-08-18T22:17:58.089Z,21.57
2022-08-18T22:20:43.133Z,21.60
2022-08-18T22:23:31.800Z,21.55
2022-08-18T22:26:21.193Z,21.53
2022-08-18T22:29:08.549Z,21.46
2022-08-18T22:31:39.050Z,21.42
2022-08-18T22:34:09.923Z,21.41
2022-08-18T22:36:40.034Z,21.36
2022-08-18T22:39:10.313Z,21.45
2022-08-18T22:41:38.049Z,21.39
2022-08-18T22:44:06.238Z,21.42
2022-08-18T22:46:34.823Z,21.48
2022-08-18T22:49:03.910Z,21.48
2022-08-18T22:51:36.692Z,21.48
2022-08-18T22:54:08.238Z,21.53
2022-08-18T22:56:38.015Z,21.58
2022-08-18T22:59:15.638Z,21.55
2022-08-18T23:01:48.787Z,21.66
2022-08-18T23:04:19.651Z,21.69
2022-08-18T23:06:52.148Z,21.73
2022-08-18T23:09:22.242Z,21.72
2022-08-18T23:11:50.147Z,21.69
2022-08-18T23:14:18.281Z,21.70
2022-08-18T23:16:47.057Z,21.71
2022-08-18T23:19:16.214Z,21.76
2022-08-18T23:21:43.720Z,21.74
2022-08-18T23:24:13.775Z,21.71
2022-08-18T23:26:41.652Z,21.55
2022-08-18T23:29:11.779Z,21.54
2022-08-18T23:31:40.800Z,21.47
2022-08-18T23:34:08.925Z,21.39
2022-08-18T23:36:41.317Z,21.30
2022-08-18T23:39:11.442Z,21.15
2022-08-18T23:41:38.933Z,21.01
2022-08-18T23:44:06.765Z,20.91
2022-08-18T23:46:35.090Z,20.88
2022-08-18T23:49:04.681Z,20.85
2022-08-18T23:51:44.176Z,20.67
2022-08-18T23:54:22.849Z,20.50
2022-08-18T23:56:50.645Z,20.40
2022-08-18T23:59:19.826Z,20.37
